createdAt,value
2023-01-10T00:00:26.782Z,5.46
2023-01-10T00:05:28.518Z,5.43
2023-01-10T00:10:30.893Z,5.40
2023-01-10T00:15:33.826Z,5.37
2023-01-10T00:20:35.913Z,5.29
2023-01-10T00:25:37.829Z,5.21
2023-01-10T00:30:40.710Z,5.14
2023-01-10T00:35:42.709Z,5.06
2023-01-10T00:40:46.058Z,5.01
2023-01-10T00:45:48.244Z,4.96
2023-01-10T00:50:50.050Z,4.97
2023-01-10T00:55:51.709Z,5.02
2023-01-10T01:00:53.432Z,5.12
2023-01-10T01:05:55.161Z,5.24
2023-01-10T01:10:56.927Z,5.37
2023-01-10T01:15:59.796Z,5.49
2023-01-10T01:21:03.624Z,5.60
2023-01-10T01:26:06.546Z,5.66
2023-01-10T01:31:09.592Z,5.69
2023-01-10T01:36:12.663Z,5.70
2023-01-10T01:41:32.912Z,5.74
2023-01-10T01:46:39.305Z,5.79
2023-01-10T01:51:41.317Z,5.88
2023-01-10T01:56:53.596Z,5.93
2023-01-10T02:02:00.586Z,5.92
2023-01-10T02:07:03.053Z,5.87
2023-01-10T02:12:05.484Z,5.82
2023-01-10T02:17:10.221Z,5.79
2023-01-10T02:22:49.689Z,5.86
2023-01-10T02:28:16.981Z,5.92
2023-01-10T02:33:53.973Z,5.89
2023-01-10T02:39:04.659Z,5.82
2023-01-10T02:44:19.876Z,5.83
2023-01-10T02:49:21.617Z,5.75
2023-01-10T02:54:27.707Z,5.71
2023-01-10T02:59:35.607Z,5.74
2023-01-10T03:04:45.761Z,5.86
2023-01-10T03:10:10.723Z,6.01
2023-01-10T03:15:17.854Z,6.03
2023-01-10T03:20:23.393Z,5.98
2023-01-10T03:25:34.220Z,5.93
2023-01-10T03:30:42.394Z,5.82
2023-01-10T03:36:01.141Z,5.66
2023-01-10T03:41:35.362Z,5.64
2023-01-10T03:46:52.533Z,5.53
2023-01-10T03:51:56.859Z,5.46
2023-01-10T03:56:58.590Z,5.43
2023-01-10T04:02:00.417Z,5.39
2023-01-10T04:07:02.437Z,5.33
2023-01-10T04:12:04.282Z,5.22
2023-01-10T04:17:06.209Z,5.11
2023-01-10T04:22:09.724Z,4.96
2023-01-10T04:27:11.447Z,4.85
2023-01-10T04:32:13.406Z,4.79
2023-01-10T04:37:15.082Z,4.75
2023-01-10T04:42:17.257Z,4.83
2023-01-10T04:47:19.125Z,4.91
2023-01-10T04:52:21.124Z,4.95
2023-01-10T04:57:22.812Z,4.98
2023-01-10T05:02:24.567Z,4.94
2023-01-10T05:07:26.305Z,5.00
2023-01-10T05:12:27.983Z,5.00
2023-01-10T05:17:29.723Z,4.98
2023-01-10T05:22:31.787Z,4.99
2023-01-10T05:27:33.551Z,5.07
2023-01-10T05:32:35.231Z,5.05
2023-01-10T05:37:38.131Z,5.07
2023-01-10T05:42:40.127Z,5.16
2023-01-10T05:47:42.780Z,5.14
2023-01-10T05:52:44.545Z,5.12
2023-01-10T05:57:46.283Z,5.11
2023-01-10T06:02:48.082Z,5.11
2023-01-10T06:07:50.682Z,5.13
2023-01-10T06:12:52.568Z,5.19
2023-01-10T06:17:54.639Z,5.28
2023-01-10T06:22:56.801Z,5.35
2023-01-10T06:27:58.481Z,5.34
2023-01-10T06:33:02.701Z,5.32
2023-01-10T06:38:05.006Z,5.31
2023-01-10T06:43:06.819Z,5.23
2023-01-10T06:48:08.692Z,5.22
2023-01-10T06:53:10.421Z,5.19
2023-01-10T06:58:12.096Z,5.17
2023-01-10T07:03:13.813Z,5.19
2023-01-10T07:08:16.188Z,5.17
2023-01-10T07:13:17.910Z,5.13
2023-01-10T07:18:19.774Z,5.10
2023-01-10T07:23:21.632Z,5.07
2023-01-10T07:28:23.730Z,5.13
2023-01-10T07:33:25.416Z,5.09
2023-01-10T07:38:27.200Z,5.01
2023-01-10T07:43:29.451Z,4.99
2023-01-10T07:48:31.344Z,5.07
2023-01-10T07:53:33.378Z,5.03
2023-01-10T07:58:35.778Z,4.98
2023-01-10T08:03:37.803Z,4.96
2023-01-10T08:08:39.621Z,4.98
2023-01-10T08:13:41.350Z,4.97
2023-01-10T08:18:43.439Z,4.93
2023-01-10T08:23:45.209Z,4.98
2023-01-10T08:28:47.045Z,4.98
2023-01-10T08:33:48.863Z,4.94
2023-01-10T08:38:51.203Z,4.87
2023-01-10T08:43:53.075Z,4.82
2023-01-10T08:48:54.790Z,4.86
2023-01-10T08:53:56.514Z,4.90
2023-01-10T08:58:58.243Z,4.92
2023-01-10T09:04:00.072Z,4.94
2023-01-10T09:09:01.839Z,4.88
2023-01-10T09:14:03.559Z,4.78
2023-01-10T09:19:05.625Z,4.71
2023-01-10T09:24:14.858Z,4.68
2023-01-10T09:29:16.692Z,4.71
2023-01-10T09:34:18.461Z,4.67
2023-01-10T09:39:21.637Z,4.65
2023-01-10T09:44:48.143Z,4.62
2023-01-10T09:49:58.038Z,4.62
2023-01-10T09:55:25.382Z,4.62
2023-01-10T10:00:51.680Z,4.63
2023-01-10T10:06:00.817Z,4.62
2023-01-10T10:11:27.250Z,4.58
2023-01-10T10:16:44.251Z,4.65
2023-01-10T10:22:04.466Z,4.76
2023-01-10T10:27:23.887Z,4.74
2023-01-10T10:32:38.110Z,4.63
2023-01-10T10:37:45.885Z,4.66
2023-01-10T10:42:51.009Z,4.76
2023-01-10T10:48:13.282Z,4.81
2023-01-10T10:53:14.979Z,4.79
2023-01-10T10:58:18.175Z,4.79
2023-01-10T11:03:42.816Z,4.81
2023-01-10T11:08:48.571Z,4.79
2023-01-10T11:13:55.823Z,4.68
2023-01-10T11:19:24.133Z,4.66
2023-01-10T11:24:38.063Z,4.77
2023-01-10T11:29:50.748Z,4.69
2023-01-10T11:35:00.926Z,4.68
2023-01-10T11:40:26.685Z,4.69
2023-01-10T11:45:32.090Z,4.66
2023-01-10T11:50:43.235Z,4.68
2023-01-10T11:55:48.644Z,4.71
2023-01-10T12:00:50.450Z,4.75
2023-01-10T12:05:57.013Z,4.89
2023-01-10T12:11:15.333Z,4.89
2023-01-10T12:16:22.542Z,4.79
2023-01-10T12:21:45.565Z,4.83
2023-01-10T12:26:51.110Z,4.80
2023-01-10T12:31:54.935Z,4.71
2023-01-10T12:37:14.745Z,4.65
2023-01-10T12:42:43.592Z,4.63
2023-01-10T12:48:06.595Z,4.60
2023-01-10T12:53:17.587Z,4.61
2023-01-10T12:58:24.044Z,4.65
2023-01-10T13:03:33.226Z,4.71
2023-01-10T13:08:37.855Z,4.68
2023-01-10T13:13:48.575Z,4.68
2023-01-10T13:19:27.528Z,4.64
2023-01-10T13:24:29.280Z,4.62
2023-01-10T13:29:41.845Z,4.62
2023-01-10T13:34:43.819Z,4.57
2023-01-10T13:39:52.625Z,4.57
2023-01-10T13:45:03.618Z,4.60
2023-01-10T13:50:33.656Z,4.61
2023-01-10T13:55:53.394Z,4.62
2023-01-10T14:01:19.912Z,4.64
2023-01-10T14:06:37.978Z,4.63
2023-01-10T14:11:42.709Z,4.65
2023-01-10T14:16:48.907Z,4.68
2023-01-10T14:21:56.199Z,4.67
2023-01-10T14:27:01.274Z,4.66
2023-01-10T14:32:12.227Z,4.62
2023-01-10T14:37:37.351Z,4.58
2023-01-10T14:42:39.311Z,4.58
2023-01-10T14:47:41.064Z,4.57
2023-01-10T14:52:43.442Z,4.58
2023-01-10T14:57:56.412Z,4.56
2023-01-10T15:03:01.825Z,4.52
2023-01-10T15:08:23.482Z,4.57
2023-01-10T15:13:28.406Z,4.52
2023-01-10T15:18:43.772Z,4.51
2023-01-10T15:23:47.070Z,4.47
2023-01-10T15:29:13.245Z,4.47
2023-01-10T15:34:26.542Z,4.49
2023-01-10T15:39:37.475Z,4.51
2023-01-10T15:44:52.455Z,4.47
2023-01-10T15:49:54.504Z,4.43
2023-01-10T15:54:57.124Z,4.40
2023-01-10T16:00:00.333Z,4.37
2023-01-10T16:05:08.887Z,4.31
2023-01-10T16:10:21.633Z,4.26
2023-01-10T16:15:26.330Z,4.25
2023-01-10T16:20:41.152Z,4.24
2023-01-10T16:25:47.164Z,4.20
2023-01-10T16:30:49.129Z,4.11
2023-01-10T16:35:53.172Z,4.01
2023-01-10T16:41:00.517Z,3.96
2023-01-10T16:46:03.671Z,3.99
2023-01-10T16:51:16.930Z,4.00
2023-01-10T16:56:24.765Z,3.95
2023-01-10T17:01:30.972Z,3.89
2023-01-10T17:06:32.888Z,3.84
2023-01-10T17:11:40.593Z,3.81
2023-01-10T17:16:42.402Z,3.82
2023-01-10T17:21:44.137Z,3.86
2023-01-10T17:26:46.047Z,3.91
2023-01-10T17:31:47.728Z,3.96
2023-01-10T17:36:49.458Z,3.97
2023-01-10T17:41:51.155Z,3.94
2023-01-10T17:46:55.163Z,3.91
2023-01-10T17:51:58.900Z,3.91
2023-01-10T17:57:01.655Z,3.95
2023-01-10T18:02:03.680Z,4.02
2023-01-10T18:07:05.635Z,4.16
2023-01-10T18:12:07.579Z,4.27
2023-01-10T18:17:11.511Z,4.37
2023-01-10T18:22:32.140Z,4.39
2023-01-10T18:27:33.959Z,4.47
2023-01-10T18:32:35.857Z,4.59
2023-01-10T18:37:39.327Z,4.62
2023-01-10T18:42:41.110Z,4.65
2023-01-10T18:47:42.834Z,4.67
2023-01-10T18:52:44.523Z,4.66
2023-01-10T18:57:46.793Z,4.63
2023-01-10T19:02:48.565Z,4.58
2023-01-10T19:07:50.332Z,4.57
2023-01-10T19:12:52.313Z,4.63
2023-01-10T19:17:57.167Z,4.68
2023-01-10T19:22:59.013Z,4.66
2023-01-10T19:28:02.586Z,4.63
2023-01-10T19:33:05.758Z,4.56
2023-01-10T19:38:07.599Z,4.48
2023-01-10T19:43:09.387Z,4.45
2023-01-10T19:48:11.103Z,4.47
2023-01-10T19:53:14.619Z,4.47
2023-01-10T19:58:16.358Z,4.52
2023-01-10T20:03:18.105Z,4.56
2023-01-10T20:08:22.759Z,4.53
2023-01-10T20:13:25.359Z,4.53
2023-01-10T20:18:28.146Z,4.56
2023-01-10T20:23:31.385Z,4.57
2023-01-10T20:28:34.444Z,4.55
2023-01-10T20:33:36.284Z,4.55
2023-01-10T20:38:38.690Z,4.54
2023-01-10T20:43:40.831Z,4.50
2023-01-10T20:48:43.405Z,4.45
2023-01-10T20:53:45.198Z,4.36
2023-01-10T20:58:47.957Z,4.30
2023-01-10T21:03:49.938Z,4.31
2023-01-10T21:08:51.755Z,4.34
2023-01-10T21:13:53.449Z,4.40
2023-01-10T21:18:55.195Z,4.41
2023-01-10T21:23:56.929Z,4.29
2023-01-10T21:28:58.655Z,4.16
2023-01-10T21:34:00.379Z,4.06
2023-01-10T21:39:02.093Z,4.03
2023-01-10T21:44:05.604Z,4.00
2023-01-10T21:49:07.333Z,4.03
2023-01-10T21:54:09.077Z,4.11
2023-01-10T21:59:10.837Z,4.13
2023-01-10T22:04:16.267Z,4.11
2023-01-10T22:09:19.374Z,4.10
2023-01-10T22:14:22.622Z,4.08
2023-01-10T22:19:24.447Z,4.11
2023-01-10T22:24:26.452Z,4.19
2023-01-10T22:29:28.359Z,4.32
2023-01-10T22:34:30.176Z,4.43
2023-01-10T22:39:32.136Z,4.41
2023-01-10T22:44:34.020Z,4.41
2023-01-10T22:49:35.768Z,4.69
2023-01-10T22:54:37.487Z,4.69
2023-01-10T22:59:39.169Z,4.57
2023-01-10T23:04:40.855Z,4.56
2023-01-10T23:09:42.535Z,4.65
2023-01-10T23:14:44.995Z,4.66
2023-01-10T23:19:46.776Z,4.67
2023-01-10T23:24:48.543Z,4.77
2023-01-10T23:29:50.215Z,4.77
2023-01-10T23:34:52.064Z,4.75
2023-01-10T23:39:53.709Z,4.79
2023-01-10T23:44:55.281Z,4.77
2023-01-10T23:49:56.953Z,4.75
2023-01-10T23:54:58.563Z,4.77
